Time;durP1;ratioP1;P1;durP2;ratioP2;P2;SDS_P1;SDS_P2;PMS_P1;PMS_P2;Temp;Humidity;BMP_temperature;BMP_pressure;BME280_temperature;BME280_humidity;BME280_pressure;Samples;Min_cycle;Max_cycle;Signal;HPM_P1;HPM_P2
2023/08/25 00:00:48;;;;;;;13.70;12.38;;;21.20;99.90;;;;;;5043091;28;20045;-77
2023/08/25 00:03:14;;;;;;;14.10;12.60;;;21.20;99.90;;;;;;5040109;28;20479;-77
2023/08/25 00:05:40;;;;;;;13.38;11.07;;;21.20;99.90;;;;;;5040969;28;20061;-76
2023/08/25 00:08:07;;;;;;;13.13;11.70;;;21.20;99.90;;;;;;5047419;28;20045;-76
2023/08/25 00:10:34;;;;;;;12.85;11.50;;;21.20;99.90;;;;;;5038313;28;20392;-76
2023/08/25 00:13:00;;;;;;;13.20;11.90;;;21.20;99.90;;;;;;5047402;28;20045;-77
2023/08/25 00:15:26;;;;;;;14.85;11.70;;;21.10;99.90;;;;;;5049108;28;20387;-76
2023/08/25 00:17:54;;;;;;;14.65;11.90;;;21.10;99.90;;;;;;5045624;28;20122;-76
2023/08/25 00:20:20;;;;;;;14.15;12.75;;;21.10;99.90;;;;;;5046103;28;20052;-76
2023/08/25 00:22:46;;;;;;;13.30;12.02;;;21.00;99.90;;;;;;5045944;28;20041;-76
2023/08/25 00:25:12;;;;;;;14.30;12.27;;;21.00;99.90;;;;;;5046025;28;20045;-77
2023/08/25 00:27:38;;;;;;;14.75;13.45;;;21.00;99.90;;;;;;5050605;28;20037;-75
2023/08/25 00:30:06;;;;;;;13.73;12.43;;;20.90;99.90;;;;;;5038956;28;20108;-75
2023/08/25 00:32:32;;;;;;;14.43;12.98;;;20.90;99.90;;;;;;5048855;28;20047;-77
2023/08/25 00:34:58;;;;;;;12.95;11.70;;;20.80;99.90;;;;;;5048353;28;20045;-76
2023/08/25 00:37:24;;;;;;;13.90;12.40;;;20.80;99.90;;;;;;5037732;28;20032;-76
2023/08/25 00:39:49;;;;;;;14.75;13.07;;;20.80;99.90;;;;;;5049088;28;20048;-76
2023/08/25 00:42:15;;;;;;;14.77;12.77;;;20.80;99.90;;;;;;5053979;28;20037;-76
2023/08/25 00:44:41;;;;;;;14.15;12.75;;;20.70;99.90;;;;;;5047129;28;20394;-76
2023/08/25 00:47:06;;;;;;;15.35;12.90;;;20.70;99.90;;;;;;5050820;28;20643;-76
2023/08/25 00:49:32;;;;;;;13.57;12.27;;;20.60;99.90;;;;;;5061543;28;20499;-77
2023/08/25 00:51:59;;;;;;;15.17;13.23;;;20.60;99.90;;;;;;5046324;28;20084;-75
2023/08/25 00:54:28;;;;;;;15.30;13.80;;;20.60;99.90;;;;;;5043794;28;20087;-76
2023/08/25 00:56:55;;;;;;;13.57;12.18;;;20.60;99.90;;;;;;5043578;28;20064;-76
2023/08/25 00:59:21;;;;;;;14.10;12.37;;;20.60;99.90;;;;;;5044254;28;20430;-76
2023/08/25 01:01:47;;;;;;;15.05;12.40;;;20.60;99.90;;;;;;5060357;28;20303;-78
2023/08/25 01:04:13;;;;;;;14.15;12.20;;;20.50;99.90;;;;;;5042649;28;20048;-75
2023/08/25 01:06:39;;;;;;;14.35;12.80;;;20.50;99.90;;;;;;5041890;28;20053;-75
2023/08/25 01:09:07;;;;;;;14.40;12.98;;;20.50;99.90;;;;;;5039473;28;20045;-75
2023/08/25 01:11:56;;;;;;;;;;;20.50;99.90;;;;;;5044704;28;20045;-77
2023/08/25 01:14:34;;;;;;;14.00;11.95;;;20.40;99.90;;;;;;5041301;28;19924;-74
2023/08/25 01:17:31;;;;;;;14.10;12.70;;;20.40;99.90;;;;;;5043992;28;20040;-76
2023/08/25 01:20:00;;;;;;;14.15;12.65;;;20.40;99.90;;;;;;5039591;28;21177;-75
2023/08/25 01:22:57;;;;;;;14.88;13.07;;;20.40;99.90;;;;;;5043489;28;20033;-75
2023/08/25 01:25:29;;;;;;;15.15;13.55;;;20.40;99.90;;;;;;5059766;28;20045;-75
2023/08/25 01:28:05;;;;;;;13.93;12.52;;;20.30;99.90;;;;;;5032443;28;20134;-77
2023/08/25 01:30:34;;;;;;;15.57;13.82;;;20.30;99.90;;;;;;5042246;28;20131;-77
2023/08/25 01:33:01;;;;;;;14.85;12.88;;;20.30;99.90;;;;;;5040825;28;20045;-76
2023/08/25 01:35:51;;;;;;;13.80;12.40;;;20.30;99.90;;;;;;5039090;28;20083;-76
2023/08/25 01:38:43;;;;;;;14.70;13.20;;;20.30;99.90;;;;;;5045391;28;20306;-75
2023/08/25 01:41:25;;;;;;;16.23;13.10;;;20.30;99.90;;;;;;5043956;28;20491;-75
2023/08/25 01:43:52;;;;;;;15.63;13.65;;;20.30;99.90;;;;;;5046170;28;20037;-75
2023/08/25 01:46:18;;;;;;;17.42;14.98;;;20.30;99.90;;;;;;5037743;28;20040;-75
2023/08/25 01:48:48;;;;;;;15.33;13.80;;;20.40;99.90;;;;;;5040197;28;20388;-75
2023/08/25 01:51:15;;;;;;;15.77;14.05;;;20.40;99.90;;;;;;5039095;28;20299;-75
2023/08/25 01:53:44;;;;;;;;;;;20.40;99.90;;;;;;5044951;28;20566;-75
2023/08/25 01:56:10;;;;;;;16.45;14.85;;;20.40;99.90;;;;;;5059532;28;20360;-74
2023/08/25 01:58:35;;;;;;;16.70;15.00;;;20.40;99.90;;;;;;5045928;28;20048;-74
2023/08/25 02:01:01;;;;;;;16.52;15.02;;;20.40;99.90;;;;;;5039537;28;20238;-75
2023/08/25 02:03:27;;;;;;;17.50;16.00;;;20.40;99.90;;;;;;5045990;28;20530;-77
2023/08/25 02:05:52;;;;;;;17.25;15.65;;;20.40;99.90;;;;;;5046912;28;20106;-74
2023/08/25 02:08:18;;;;;;;17.98;16.17;;;20.50;99.90;;;;;;5045139;28;20045;-75
2023/08/25 02:10:44;;;;;;;18.30;16.50;;;20.50;99.90;;;;;;5043819;28;20040;-75
2023/08/25 02:13:10;;;;;;;19.55;17.65;;;20.50;99.90;;;;;;5047589;28;20056;-74
2023/08/25 02:15:36;;;;;;;18.83;17.15;;;20.50;99.90;;;;;;5047022;28;20072;-75
2023/08/25 02:18:01;;;;;;;20.58;18.35;;;20.50;99.90;;;;;;5040354;28;20502;-75
2023/08/25 02:20:27;;;;;;;19.55;17.75;;;20.50;99.90;;;;;;5045022;28;20041;-76
2023/08/25 02:22:53;;;;;;;21.40;19.23;;;20.50;99.90;;;;;;5044004;28;20048;-74
2023/08/25 02:25:19;;;;;;;21.40;19.30;;;20.50;99.90;;;;;;5047940;28;20438;-75
2023/08/25 02:27:44;;;;;;;21.10;19.13;;;20.50;99.90;;;;;;5039518;28;20060;-75
2023/08/25 02:30:11;;;;;;;21.77;19.67;;;20.50;99.90;;;;;;5041793;28;20072;-75
2023/08/25 02:32:36;;;;;;;21.13;19.13;;;20.50;99.90;;;;;;5042002;28;20122;-75
2023/08/25 02:35:03;;;;;;;22.92;20.73;;;20.50;99.90;;;;;;5034104;28;20068;-76
2023/08/25 02:37:29;;;;;;;23.77;21.27;;;20.40;99.90;;;;;;5044100;28;20040;-77
2023/08/25 02:39:54;;;;;;;21.48;19.48;;;20.40;99.90;;;;;;5045439;28;20041;-76
2023/08/25 02:42:20;;;;;;;22.33;20.15;;;20.40;99.90;;;;;;5047651;28;20048;-75
2023/08/25 02:44:46;;;;;;;21.88;19.88;;;20.40;99.90;;;;;;5043153;28;20098;-77
2023/08/25 02:47:12;;;;;;;23.08;20.67;;;20.40;99.90;;;;;;5045373;28;20036;-76
2023/08/25 02:49:38;;;;;;;21.65;19.65;;;20.40;99.90;;;;;;5045212;28;20517;-77
2023/08/25 02:52:07;;;;;;;23.25;21.15;;;20.40;99.90;;;;;;5048408;28;20439;-76
2023/08/25 02:54:33;;;;;;;23.30;21.13;;;20.40;99.90;;;;;;5047047;28;20041;-78
2023/08/25 02:56:59;;;;;;;23.95;21.73;;;20.40;99.90;;;;;;5047399;28;20396;-78
2023/08/25 02:59:24;;;;;;;25.17;22.75;;;20.40;99.90;;;;;;5046688;28;20063;-77
2023/08/25 03:01:50;;;;;;;23.75;21.50;;;20.40;99.90;;;;;;5043393;28;20392;-77
2023/08/25 03:04:16;;;;;;;25.10;22.65;;;20.40;99.90;;;;;;5040761;28;20067;-76
2023/08/25 03:06:42;;;;;;;25.00;22.52;;;20.30;99.90;;;;;;5049895;28;20049;-75
2023/08/25 03:09:07;;;;;;;26.20;23.52;;;20.30;99.90;;;;;;5048024;28;20688;-75
2023/08/25 03:11:33;;;;;;;27.00;24.10;;;20.30;99.90;;;;;;5045717;28;20039;-75
2023/08/25 03:13:59;;;;;;;26.30;23.73;;;20.30;99.90;;;;;;5041453;28;20057;-75
2023/08/25 03:16:24;;;;;;;26.42;23.90;;;20.30;99.90;;;;;;5047957;28;20110;-77
2023/08/25 03:18:50;;;;;;;26.67;23.80;;;20.20;99.90;;;;;;5041408;28;20502;-74
2023/08/25 03:21:16;;;;;;;26.48;23.98;;;20.20;99.90;;;;;;5043909;28;20198;-76
2023/08/25 03:23:42;;;;;;;27.13;24.63;;;20.10;99.90;;;;;;5049829;28;20551;-76
2023/08/25 03:26:08;;;;;;;26.20;23.63;;;20.10;99.90;;;;;;5040869;28;20052;-75
2023/08/25 03:28:34;;;;;;;26.45;23.90;;;20.10;99.90;;;;;;5042140;28;20299;-75
2023/08/25 03:31:00;;;;;;;28.85;26.15;;;20.10;99.90;;;;;;5041691;28;20044;-75
2023/08/25 03:33:25;;;;;;;28.70;25.83;;;20.00;99.90;;;;;;5057372;28;20045;-75
2023/08/25 03:35:51;;;;;;;29.10;26.20;;;20.00;99.90;;;;;;5039325;28;20090;-76
2023/08/25 03:38:17;;;;;;;28.02;25.38;;;20.00;99.90;;;;;;5044033;28;20041;-75
2023/08/25 03:40:43;;;;;;;31.55;28.58;;;19.90;99.90;;;;;;5040955;28;20041;-76
2023/08/25 03:43:09;;;;;;;29.50;26.60;;;19.90;99.90;;;;;;5048540;28;20047;-75
2023/08/25 03:45:36;;;;;;;30.75;27.92;;;19.90;99.90;;;;;;5047664;28;20502;-75
2023/08/25 03:48:02;;;;;;;28.13;25.63;;;19.80;99.90;;;;;;5047801;28;20088;-76
2023/08/25 03:50:28;;;;;;;29.98;26.98;;;19.80;99.90;;;;;;5043559;28;20040;-74
2023/08/25 03:52:54;;;;;;;28.42;25.73;;;19.80;99.90;;;;;;5039702;28;20407;-76
2023/08/25 03:55:21;;;;;;;29.42;26.60;;;19.80;99.90;;;;;;5043209;28;20486;-76
2023/08/25 03:57:47;;;;;;;29.30;26.60;;;19.80;99.90;;;;;;5043410;28;20068;-75
2023/08/25 04:00:13;;;;;;;30.75;27.63;;;19.70;99.90;;;;;;5060103;28;20182;-75
2023/08/25 04:02:39;;;;;;;30.67;27.77;;;19.70;99.90;;;;;;5043301;28;20083;-77
2023/08/25 04:05:06;;;;;;;32.95;29.83;;;19.70;99.90;;;;;;5048665;28;20067;-75
2023/08/25 04:07:32;;;;;;;31.30;28.48;;;19.60;99.90;;;;;;5048118;28;20068;-76
2023/08/25 04:09:57;;;;;;;32.28;29.23;;;19.70;99.90;;;;;;5049287;28;20384;-75
2023/08/25 04:12:23;;;;;;;30.25;27.55;;;19.60;99.90;;;;;;5048765;28;20048;-74
2023/08/25 04:14:49;;;;;;;33.53;30.33;;;19.70;99.90;;;;;;5036523;28;20041;-75
2023/08/25 04:17:15;;;;;;;30.58;27.42;;;19.60;99.90;;;;;;5040757;28;20053;-77
2023/08/25 04:19:40;;;;;;;31.13;28.27;;;19.70;99.90;;;;;;5045376;28;20048;-76
2023/08/25 04:22:06;;;;;;;32.08;29.08;;;19.60;99.90;;;;;;5048517;28;20040;-76
2023/08/25 04:24:32;;;;;;;34.20;30.88;;;19.60;99.90;;;;;;5043656;28;20076;-77
2023/08/25 04:26:58;;;;;;;34.45;31.05;;;19.50;99.90;;;;;;5048937;28;20503;-75
2023/08/25 04:29:24;;;;;;;33.40;29.95;;;19.60;99.90;;;;;;5047483;28;20528;-76
2023/08/25 04:31:50;;;;;;;34.30;30.80;;;19.50;99.90;;;;;;5043764;28;20051;-78
2023/08/25 04:34:15;;;;;;;35.47;32.00;;;19.60;99.90;;;;;;5041472;28;20307;-75
2023/08/25 04:36:45;;;;;;;34.72;31.52;;;19.50;99.90;;;;;;5039996;28;20447;-76
2023/08/25 04:39:11;;;;;;;35.20;31.75;;;19.50;99.90;;;;;;5047316;28;20041;-76
2023/08/25 04:41:37;;;;;;;36.85;32.88;;;19.50;99.90;;;;;;5042682;28;20041;-76
2023/08/25 04:44:02;;;;;;;35.58;31.90;;;19.50;99.90;;;;;;5045988;28;20041;-76
2023/08/25 04:46:29;;;;;;;35.60;32.10;;;19.50;99.90;;;;;;5044527;28;20538;-76
2023/08/25 04:48:55;;;;;;;36.00;32.60;;;19.50;99.90;;;;;;5044325;28;20033;-76
2023/08/25 04:51:21;;;;;;;35.97;32.45;;;19.50;99.90;;;;;;5038187;28;20551;-76
2023/08/25 04:53:47;;;;;;;37.60;33.97;;;19.50;99.90;;;;;;5040322;28;20037;-75
2023/08/25 04:56:12;;;;;;;37.90;34.25;;;19.50;99.90;;;;;;5046916;28;20049;-75
2023/08/25 04:58:38;;;;;;;39.67;35.67;;;19.60;99.90;;;;;;5043897;28;20041;-74
2023/08/25 05:01:04;;;;;;;42.58;37.63;;;19.60;99.90;;;;;;5040175;28;20041;-75
2023/08/25 05:03:30;;;;;;;44.28;38.08;;;19.60;99.90;;;;;;5041688;28;20033;-75
2023/08/25 05:05:55;;;;;;;49.58;42.20;;;19.60;99.90;;;;;;5038287;28;20053;-76
2023/08/25 05:08:21;;;;;;;47.17;41.10;;;19.60;99.90;;;;;;5040029;28;20101;-77
2023/08/25 05:10:47;;;;;;;47.83;41.40;;;19.70;99.90;;;;;;5052489;28;20046;-77
2023/08/25 05:13:13;;;;;;;50.80;41.03;;;19.70;99.90;;;;;;5047804;28;20052;-76
2023/08/25 05:15:39;;;;;;;52.47;43.25;;;19.70;99.90;;;;;;5023754;28;20128;-75
2023/08/25 05:18:04;;;;;;;53.83;45.13;;;19.70;99.90;;;;;;5038730;28;20075;-78
2023/08/25 05:20:30;;;;;;;56.83;45.22;;;19.80;99.90;;;;;;5040221;28;20091;-75
2023/08/25 05:22:56;;;;;;;53.20;44.28;;;19.80;99.90;;;;;;5043962;28;20055;-76
2023/08/25 05:25:22;;;;;;;49.50;44.10;;;19.80;99.90;;;;;;5045970;28;20059;-77
2023/08/25 05:27:48;;;;;;;48.63;43.13;;;19.80;99.90;;;;;;5039908;28;20061;-75
2023/08/25 05:30:14;;;;;;;52.67;44.78;;;19.80;99.90;;;;;;5038541;28;20045;-75
2023/08/25 05:32:40;;;;;;;48.83;43.53;;;19.80;99.90;;;;;;5043096;28;20332;-75
2023/08/25 05:35:06;;;;;;;49.90;43.42;;;19.80;99.90;;;;;;5041062;28;20045;-75
2023/08/25 05:37:33;;;;;;;47.93;42.97;;;19.80;99.90;;;;;;5039611;28;20041;-76
2023/08/25 05:39:59;;;;;;;49.33;43.67;;;19.80;99.90;;;;;;5048801;28;20044;-78
2023/08/25 05:42:31;;;;;;;45.45;40.88;;;19.90;99.90;;;;;;5046341;28;20040;-78
2023/08/25 05:44:57;;;;;;;46.65;41.95;;;19.80;99.90;;;;;;5045030;28;20080;-75
2023/08/25 05:47:23;;;;;;;47.28;42.30;;;19.90;99.90;;;;;;5045487;28;20099;-77
2023/08/25 05:49:50;;;;;;;46.40;41.50;;;19.90;99.90;;;;;;5037589;28;20757;-76
2023/08/25 05:52:16;;;;;;;45.70;41.00;;;19.90;99.90;;;;;;5040413;28;20644;-74
2023/08/25 05:54:48;;;;;;;46.00;41.35;;;19.90;99.90;;;;;;5043238;28;20044;-77
2023/08/25 05:57:14;;;;;;;46.78;41.75;;;19.90;99.90;;;;;;5041044;28;20047;-78
2023/08/25 05:59:40;;;;;;;47.85;43.00;;;19.90;99.90;;;;;;5042648;28;20045;-76
2023/08/25 06:02:07;;;;;;;49.33;44.17;;;19.90;99.90;;;;;;5043030;28;20048;-77
2023/08/25 06:04:33;;;;;;;45.90;41.20;;;19.90;99.90;;;;;;5048142;28;20531;-74
2023/08/25 06:06:59;;;;;;;45.35;40.88;;;20.00;99.90;;;;;;5031968;28;20594;-76
2023/08/25 06:09:25;;;;;;;46.58;41.88;;;20.00;99.90;;;;;;5043945;28;20049;-75
2023/08/25 06:11:51;;;;;;;46.28;41.47;;;20.00;99.90;;;;;;5045442;28;20037;-77
2023/08/25 06:14:18;;;;;;;48.97;43.83;;;20.00;99.90;;;;;;5035365;28;20050;-83
2023/08/25 06:16:44;;;;;;;47.15;42.03;;;20.00;99.90;;;;;;5034909;28;20785;-81
2023/08/25 06:19:19;;;;;;;45.60;40.85;;;20.00;99.90;;;;;;5037978;28;20067;-84
2023/08/25 06:21:45;;;;;;;47.30;42.50;;;20.10;99.90;;;;;;5043632;28;20056;-84
2023/08/25 06:24:11;;;;;;;46.90;42.13;;;20.10;99.90;;;;;;5038460;28;20373;-85
2023/08/25 06:26:37;;;;;;;47.58;42.70;;;20.10;99.90;;;;;;5041524;28;20044;-82
2023/08/25 06:29:11;;;;;;;51.22;43.80;;;20.20;99.90;;;;;;5036821;28;20044;-81
2023/08/25 06:31:40;;;;;;;45.63;40.70;;;20.20;99.90;;;;;;5043134;28;20112;-86
2023/08/25 06:34:09;;;;;;;46.25;41.08;;;20.20;99.90;;;;;;5038147;28;20071;-81
2023/08/25 06:36:40;;;;;;;48.03;43.03;;;20.20;99.90;;;;;;5038719;28;20041;-80
2023/08/25 06:39:18;;;;;;;49.20;43.95;;;20.20;99.90;;;;;;5042934;28;20090;-82
2023/08/25 06:41:50;;;;;;;45.72;41.05;;;20.20;99.90;;;;;;5035945;28;20119;-82
2023/08/25 06:44:21;;;;;;;48.50;43.25;;;20.20;99.90;;;;;;5052313;28;20047;-82
2023/08/25 06:46:50;;;;;;;50.47;45.00;;;20.10;99.90;;;;;;5047905;28;20488;-81
2023/08/25 06:49:24;;;;;;;;;;;20.20;99.90;;;;;;5040438;28;20041;-82
2023/08/25 06:51:55;;;;;;;47.97;43.10;;;20.20;99.90;;;;;;5042189;28;19966;-85
2023/08/25 06:54:26;;;;;;;48.38;43.20;;;20.10;99.90;;;;;;5039399;28;20049;-82
2023/08/25 06:56:53;;;;;;;50.58;45.08;;;20.20;99.90;;;;;;5022849;28;20052;-82
2023/08/25 06:59:19;;;;;;;49.33;44.20;;;20.20;99.90;;;;;;5030176;28;20057;-81
2023/08/25 07:01:47;;;;;;;47.85;42.83;;;20.20;99.90;;;;;;5030891;28;20051;-82
2023/08/25 07:04:15;;;;;;;47.40;42.42;;;20.20;99.90;;;;;;5031142;28;20450;-83
2023/08/25 07:06:44;;;;;;;48.03;43.08;;;20.20;99.90;;;;;;5034685;28;20046;-83
2023/08/25 07:09:13;;;;;;;47.55;42.67;;;20.30;99.90;;;;;;5042012;28;20129;-82
2023/08/25 07:11:45;;;;;;;45.03;40.53;;;20.30;99.90;;;;;;5053765;28;20147;-82
2023/08/25 07:14:11;;;;;;;51.47;45.95;;;20.30;99.90;;;;;;5036301;28;20037;-83
2023/08/25 07:16:39;;;;;;;47.47;42.83;;;20.30;99.90;;;;;;5041685;28;20060;-81
2023/08/25 07:19:05;;;;;;;48.28;43.35;;;20.40;99.90;;;;;;5040764;28;20040;-84
2023/08/25 07:21:33;;;;;;;47.90;43.00;;;20.40;99.90;;;;;;5015074;28;20420;-86
2023/08/25 07:24:01;;;;;;;47.50;42.33;;;20.40;99.90;;;;;;5023431;28;20470;-85
2023/08/25 07:26:27;;;;;;;47.88;43.13;;;20.40;99.90;;;;;;5033784;28;20055;-85
2023/08/25 07:28:53;;;;;;;48.38;43.33;;;20.50;99.90;;;;;;5047041;28;20231;-79
2023/08/25 07:31:19;;;;;;;46.80;42.15;;;20.50;99.90;;;;;;5046074;28;20572;-81
2023/08/25 07:33:45;;;;;;;47.53;42.53;;;20.50;99.90;;;;;;5041180;28;20132;-85
2023/08/25 07:36:14;;;;;;;47.55;42.75;;;20.50;99.90;;;;;;5052616;28;20088;-83
2023/08/25 07:38:40;;;;;;;46.10;41.58;;;20.50;99.90;;;;;;5050696;28;20212;-80
2023/08/25 07:41:06;;;;;;;46.55;41.80;;;20.50;99.90;;;;;;5050710;28;20140;-82
2023/08/25 07:43:32;;;;;;;44.35;40.05;;;20.60;99.90;;;;;;5050620;28;20043;-86
2023/08/25 07:45:58;;;;;;;45.40;40.72;;;20.70;99.90;;;;;;5047876;28;20344;-79
2023/08/25 07:48:24;;;;;;;45.47;40.70;;;20.70;99.90;;;;;;5040092;28;20048;-81
2023/08/25 07:50:50;;;;;;;46.28;41.67;;;20.70;99.90;;;;;;5048263;28;20025;-79
2023/08/25 07:53:16;;;;;;;47.17;42.40;;;20.80;99.90;;;;;;5066905;28;20056;-79
2023/08/25 07:55:42;;;;;;;45.78;41.03;;;20.80;99.90;;;;;;5051011;28;20052;-79
2023/08/25 07:58:11;;;;;;;45.88;41.28;;;20.80;99.90;;;;;;5041048;28;20124;-78
2023/08/25 08:00:40;;;;;;;46.60;41.63;;;20.80;99.90;;;;;;5031622;28;20158;-78
2023/08/25 08:03:08;;;;;;;46.67;41.88;;;20.80;99.90;;;;;;5041109;28;20037;-80
2023/08/25 08:05:35;;;;;;;46.67;41.75;;;20.80;99.90;;;;;;5046529;28;20452;-81
2023/08/25 08:08:01;;;;;;;46.83;42.08;;;20.80;99.90;;;;;;5043035;28;20048;-83
2023/08/25 08:10:27;;;;;;;45.33;40.75;;;20.80;99.90;;;;;;5051305;28;20059;-84
2023/08/25 08:12:53;;;;;;;47.97;42.97;;;20.80;99.90;;;;;;5046266;28;20059;-80
2023/08/25 08:15:19;;;;;;;46.95;42.03;;;20.90;99.90;;;;;;5051143;28;20408;-81
2023/08/25 08:17:45;;;;;;;44.63;40.05;;;20.90;99.90;;;;;;5042715;28;20531;-75
2023/08/25 08:20:13;;;;;;;44.15;39.65;;;20.90;99.90;;;;;;5045484;28;20554;-80
2023/08/25 08:22:43;;;;;;;45.92;41.38;;;21.00;99.90;;;;;;5044115;28;20041;-81
2023/08/25 08:25:10;;;;;;;43.90;39.53;;;21.10;99.90;;;;;;5049179;28;20048;-78
2023/08/25 08:27:39;;;;;;;;;;;21.10;99.90;;;;;;5051149;28;20498;-80
2023/08/25 08:30:06;;;;;;;44.53;40.10;;;21.10;99.90;;;;;;5048975;28;20375;-80
2023/08/25 08:32:34;;;;;;;46.10;41.50;;;21.10;99.90;;;;;;5047645;28;20040;-78
2023/08/25 08:35:00;;;;;;;44.22;39.90;;;21.20;99.90;;;;;;5042631;28;20037;-78
2023/08/25 08:37:26;;;;;;;46.38;41.53;;;21.20;99.90;;;;;;5047935;28;20075;-77
2023/08/25 08:39:51;;;;;;;43.95;39.65;;;21.30;99.90;;;;;;5048201;28;20053;-78
2023/08/25 08:42:18;;;;;;;44.13;39.80;;;21.30;99.90;;;;;;5050790;28;20083;-76
2023/08/25 08:44:49;;;;;;;42.45;38.05;;;21.40;99.90;;;;;;5051419;28;20694;-79
2023/08/25 08:47:17;;;;;;;41.72;37.42;;;21.30;99.90;;;;;;5046522;28;20045;-77
2023/08/25 08:49:44;;;;;;;44.15;39.92;;;21.30;99.90;;;;;;5047378;28;20033;-78
2023/08/25 08:52:10;;;;;;;42.50;38.20;;;21.30;99.90;;;;;;5047561;28;20052;-86
2023/08/25 08:54:37;;;;;;;45.58;40.97;;;21.30;99.90;;;;;;5043370;28;20045;-85
2023/08/25 08:57:04;;;;;;;43.42;39.17;;;21.30;99.90;;;;;;5038747;28;20476;-88
2023/08/25 08:59:30;;;;;;;44.83;40.35;;;21.30;99.90;;;;;;5048508;28;20052;-89
2023/08/25 09:02:00;;;;;;;47.58;42.60;;;21.30;99.90;;;;;;5050708;28;20045;-87
2023/08/25 09:04:28;;;;;;;47.35;42.50;;;21.30;99.90;;;;;;5049219;28;20103;-90
2023/08/25 09:06:57;;;;;;;47.83;43.05;;;21.30;99.90;;;;;;5041105;28;20056;-84
2023/08/25 09:09:24;;;;;;;46.25;41.53;;;21.30;99.90;;;;;;5049788;28;20033;-90
2023/08/25 09:11:50;;;;;;;47.25;42.25;;;21.20;99.90;;;;;;5042874;28;20045;-87
2023/08/25 09:14:28;;;;;;;45.35;40.67;;;21.30;99.90;;;;;;5045872;28;20091;-85
2023/08/25 09:16:56;;;;;;;45.10;40.38;;;21.30;99.90;;;;;;5048728;28;20044;-88
2023/08/25 09:19:23;;;;;;;46.83;42.08;;;21.30;99.90;;;;;;5044131;28;20056;-83
2023/08/25 09:21:49;;;;;;;46.75;42.03;;;21.30;99.90;;;;;;5049249;28;20076;-87
2023/08/25 09:24:20;;;;;;;46.55;41.92;;;21.30;99.90;;;;;;5047611;28;20041;-91
2023/08/25 09:26:47;;;;;;;47.85;43.05;;;21.40;99.90;;;;;;5040070;28;20044;-88
2023/08/25 09:29:14;;;;;;;;;;;21.40;99.90;;;;;;5046255;28;20488;-90
2023/08/25 09:31:42;;;;;;;43.92;39.55;;;21.40;99.90;;;;;;5041288;28;19920;-85
2023/08/25 09:34:10;;;;;;;45.92;41.15;;;21.40;99.90;;;;;;5045397;28;20067;-85
2023/08/25 09:36:56;;;;;;;47.47;42.67;;;21.40;99.90;;;;;;5050246;28;20171;-77
2023/08/25 09:39:23;;;;;;;46.72;41.70;;;21.40;99.90;;;;;;5030834;28;20053;-78
2023/08/25 09:41:53;;;;;;;46.50;41.65;;;21.40;99.90;;;;;;5037190;28;20574;-77
2023/08/25 09:44:19;;;;;;;;;;;21.40;99.90;;;;;;5050187;28;20098;-79
2023/08/25 09:46:45;;;;;;;47.80;40.90;;;21.40;99.90;;;;;;5064117;28;19921;-81
2023/08/25 09:49:14;;;;;;;46.58;41.88;;;21.40;99.90;;;;;;5041587;28;20048;-80
2023/08/25 09:51:53;;;;;;;45.63;40.95;;;21.40;99.90;;;;;;5048266;28;20068;-76
2023/08/25 09:54:22;;;;;;;45.30;40.72;;;21.40;99.90;;;;;;5062452;28;20433;-78
2023/08/25 09:56:48;;;;;;;45.95;41.47;;;21.40;99.90;;;;;;5044948;28;20535;-82
2023/08/25 09:59:17;;;;;;;48.60;41.63;;;21.40;99.90;;;;;;5045731;28;20175;-82
2023/08/25 10:01:45;;;;;;;45.83;41.25;;;21.40;99.90;;;;;;5049080;28;20135;-83
2023/08/25 10:04:13;;;;;;;46.35;41.70;;;21.30;99.90;;;;;;5049861;28;20484;-86
2023/08/25 10:06:40;;;;;;;46.55;41.72;;;21.30;99.90;;;;;;5039160;28;20123;-83
2023/08/25 10:09:08;;;;;;;49.90;43.75;;;21.20;99.90;;;;;;5043016;28;20041;-87
2023/08/25 10:11:48;;;;;;;50.22;44.85;;;21.20;99.90;;;;;;5044277;28;20041;-84
2023/08/25 10:14:15;;;;;;;59.63;48.78;;;21.20;99.90;;;;;;5038235;28;20439;-80
2023/08/25 10:16:51;;;;;;;58.35;48.40;;;21.20;99.90;;;;;;5040479;28;20489;-82
2023/08/25 10:19:27;;;;;;;;;;;21.10;99.90;;;;;;5055699;28;20055;-80
2023/08/25 10:21:55;;;;;;;54.25;47.63;;;21.10;99.90;;;;;;5043790;28;20364;-80
2023/08/25 10:24:21;;;;;;;;;;;21.00;99.90;;;;;;5046787;28;20495;-82
2023/08/25 10:26:51;;;;;;;56.20;49.05;;;21.10;99.90;;;;;;5048750;28;19979;-84
2023/08/25 10:29:20;;;;;;;53.85;48.03;;;21.10;99.90;;;;;;5047862;28;20033;-81
2023/08/25 10:31:58;;;;;;;52.95;47.67;;;21.20;99.90;;;;;;5037020;28;20073;-83
2023/08/25 10:34:36;;;;;;;52.92;47.42;;;21.30;99.90;;;;;;5046418;28;20403;-82
2023/08/25 10:37:10;;;;;;;57.10;50.88;;;21.30;99.90;;;;;;5046378;28;20527;-87
2023/08/25 10:40:02;;;;;;;54.35;48.45;;;21.30;99.90;;;;;;5039587;28;20444;-83
2023/08/25 10:42:33;;;;;;;57.88;51.58;;;21.30;99.90;;;;;;5047729;28;20063;-87
2023/08/25 10:45:14;;;;;;;54.47;48.50;;;21.30;99.90;;;;;;5046567;28;20033;-89
2023/08/25 10:48:16;;;;;;;47.05;42.28;;;21.30;99.90;;;;;;5044180;28;20119;-92
2023/08/25 10:50:43;;;;;;;48.03;42.90;;;21.30;99.90;;;;;;5017023;28;20450;-83
2023/08/25 10:53:54;;;;;;;48.40;43.28;;;21.30;99.90;;;;;;5044762;28;20045;-90
2023/08/25 10:56:23;;;;;;;29.45;26.50;;;21.30;99.90;;;;;;5044634;28;20065;-84
2023/08/25 10:59:09;;;;;;;26.23;21.77;;;21.20;99.90;;;;;;5045186;28;20041;-84
2023/08/25 11:01:38;;;;;;;19.05;17.20;;;21.20;99.90;;;;;;5047400;28;20522;-86
2023/08/25 11:04:21;;;;;;;15.05;13.13;;;21.20;99.90;;;;;;5050105;28;20415;-90
2023/08/25 11:06:49;;;;;;;17.15;15.48;;;21.20;99.90;;;;;;5048936;28;20037;-81
2023/08/25 11:09:21;;;;;;;17.55;15.63;;;21.30;99.90;;;;;;5047536;28;20068;-81
2023/08/25 11:11:56;;;;;;;16.75;14.93;;;21.30;99.90;;;;;;5044860;28;20585;-89
2023/08/25 11:14:45;;;;;;;19.48;17.45;;;21.40;99.90;;;;;;5052170;28;20045;-92
2023/08/25 11:17:11;;;;;;;20.60;18.50;;;21.40;99.90;;;;;;5044439;28;20120;-82
2023/08/25 11:19:39;;;;;;;20.83;17.95;;;21.40;99.90;;;;;;5048864;28;20085;-86
2023/08/25 11:22:13;;;;;;;20.70;18.50;;;21.40;99.90;;;;;;5048689;28;20083;-86
2023/08/25 11:24:48;;;;;;;18.80;16.77;;;21.30;99.90;;;;;;5043319;28;20044;-91
2023/08/25 11:27:22;;;;;;;17.90;16.00;;;21.30;99.90;;;;;;5031142;28;20048;-86
2023/08/25 11:29:49;;;;;;;15.73;14.02;;;21.30;99.90;;;;;;5057065;28;20049;-84
2023/08/25 11:32:15;;;;;;;15.27;11.90;;;21.30;99.90;;;;;;5056905;28;20492;-83
2023/08/25 11:34:50;;;;;;;11.25;10.13;;;21.30;99.90;;;;;;5046278;28;20072;-84
2023/08/25 11:37:16;;;;;;;11.50;10.30;;;21.40;99.90;;;;;;5037175;28;20041;-81
2023/08/25 11:39:44;;;;;;;14.27;12.30;;;21.40;99.90;;;;;;5036838;28;20117;-79
2023/08/25 11:42:35;;;;;;;;;;;21.30;99.90;;;;;;5045443;28;20124;-76
2023/08/25 11:45:08;;;;;;;11.00;9.90;;;21.30;99.90;;;;;;5029421;28;20343;-77
2023/08/25 11:47:35;;;;;;;11.05;9.82;;;21.30;99.90;;;;;;5049941;28;20057;-78
2023/08/25 11:50:02;;;;;;;13.43;11.32;;;21.30;99.90;;;;;;5052295;28;20549;-77
2023/08/25 11:52:29;;;;;;;11.70;10.27;;;21.30;99.90;;;;;;5049133;28;20348;-76
2023/08/25 11:54:55;;;;;;;13.45;10.63;;;21.40;99.90;;;;;;5035917;28;20037;-79
2023/08/25 11:57:21;;;;;;;14.00;11.63;;;21.40;99.90;;;;;;5049867;28;20043;-78
2023/08/25 11:59:47;;;;;;;11.73;10.52;;;21.40;99.90;;;;;;5059585;28;20084;-78
2023/08/25 12:02:18;;;;;;;12.07;10.85;;;21.50;99.90;;;;;;5044491;28;20077;-76
2023/08/25 12:05:04;;;;;;;11.02;9.95;;;21.50;99.90;;;;;;5063170;28;20057;-76
2023/08/25 12:07:33;;;;;;;9.30;8.15;;;21.50;99.90;;;;;;5047859;28;20499;-77
2023/08/25 12:10:05;;;;;;;9.45;8.55;;;21.50;99.90;;;;;;5051833;28;20548;-77
2023/08/25 12:12:40;;;;;;;8.45;7.60;;;21.50;99.90;;;;;;5048004;28;20116;-76
2023/08/25 12:15:07;;;;;;;10.27;9.18;;;21.50;99.90;;;;;;5046157;28;20455;-78
2023/08/25 12:17:35;;;;;;;10.93;9.27;;;21.50;99.90;;;;;;5050841;28;20416;-78
2023/08/25 12:20:14;;;;;;;10.93;8.52;;;21.60;99.90;;;;;;5042419;28;20461;-79
2023/08/25 12:22:56;;;;;;;9.20;8.20;;;21.60;99.90;;;;;;5050595;28;20045;-77
2023/08/25 12:25:22;;;;;;;7.82;7.03;;;21.60;99.90;;;;;;5050661;28;20539;-78
2023/08/25 12:27:49;;;;;;;8.38;6.18;;;21.60;99.90;;;;;;5046392;28;20120;-77
2023/08/25 12:30:15;;;;;;;6.32;5.35;;;21.50;99.90;;;;;;5049806;28;20107;-76
2023/08/25 12:32:41;;;;;;;6.78;5.80;;;21.50;99.90;;;;;;5044182;28;20052;-78
2023/08/25 12:35:07;;;;;;;7.63;6.83;;;21.40;99.90;;;;;;5061887;28;20072;-78
2023/08/25 12:37:33;;;;;;;8.27;6.07;;;21.40;99.90;;;;;;5040604;28;20049;-78